sensor_id;sensor_type;location;lat;lon;timestamp;temperature;humidity
33580;DHT22;19909;43.644;-79.438;2023-01-29T00:01:56;16.40;34.90
33580;DHT22;19909;43.644;-79.438;2023-01-29T00:04:23;16.40;34.90
33580;DHT22;19909;43.644;-79.438;2023-01-29T00:06:50;16.40;35.00
33580;DHT22;19909;43.644;-79.438;2023-01-29T00:09:17;16.40;35.10
33580;DHT22;19909;43.644;-79.438;2023-01-29T00:11:43;16.40;35.10
33580;DHT22;19909;43.644;-79.438;2023-01-29T00:14:10;16.40;35.00
33580;DHT22;19909;43.644;-79.438;2023-01-29T00:16:36;16.40;34.90
33580;DHT22;19909;43.644;-79.438;2023-01-29T00:19:03;16.40;34.80
33580;DHT22;19909;43.644;-79.438;2023-01-29T00:21:30;16.40;35.00
33580;DHT22;19909;43.644;-79.438;2023-01-29T00:23:58;16.40;35.10
33580;DHT22;19909;43.644;-79.438;2023-01-29T00:26:25;16.40;35.10
33580;DHT22;19909;43.644;-79.438;2023-01-29T00:28:52;16.40;35.10
33580;DHT22;19909;43.644;-79.438;2023-01-29T00:31:22;16.40;34.90
33580;DHT22;19909;43.644;-79.438;2023-01-29T00:33:49;16.40;34.90
33580;DHT22;19909;43.644;-79.438;2023-01-29T00:36:18;16.40;35.00
33580;DHT22;19909;43.644;-79.438;2023-01-29T00:38:44;16.40;35.00
33580;DHT22;19909;43.644;-79.438;2023-01-29T00:41:20;16.40;35.00
33580;DHT22;19909;43.644;-79.438;2023-01-29T00:44:06;16.40;35.00
33580;DHT22;19909;43.644;-79.438;2023-01-29T00:46:51;16.40;35.00
33580;DHT22;19909;43.644;-79.438;2023-01-29T00:49:17;16.40;34.90
33580;DHT22;19909;43.644;-79.438;2023-01-29T00:51:43;16.40;35.00
33580;DHT22;19909;43.644;-79.438;2023-01-29T00:54:29;16.40;35.10
33580;DHT22;19909;43.644;-79.438;2023-01-29T00:56:55;16.40;35.20
33580;DHT22;19909;43.644;-79.438;2023-01-29T00:59:21;16.40;35.10
33580;DHT22;19909;43.644;-79.438;2023-01-29T01:01:47;16.40;35.10
33580;DHT22;19909;43.644;-79.438;2023-01-29T01:04:32;16.40;35.00
33580;DHT22;19909;43.644;-79.438;2023-01-29T01:06:58;16.40;35.00
33580;DHT22;19909;43.644;-79.438;2023-01-29T01:09:24;16.40;35.10
33580;DHT22;19909;43.644;-79.438;2023-01-29T01:12:09;16.40;35.10
33580;DHT22;19909;43.644;-79.438;2023-01-29T01:14:35;16.40;35.10
33580;DHT22;19909;43.644;-79.438;2023-01-29T01:17:01;16.40;35.00
33580;DHT22;19909;43.644;-79.438;2023-01-29T01:19:27;16.40;35.00
33580;DHT22;19909;43.644;-79.438;2023-01-29T01:21:53;16.40;35.00
33580;DHT22;19909;43.644;-79.438;2023-01-29T01:24:20;16.40;35.10
33580;DHT22;19909;43.644;-79.438;2023-01-29T01:26:46;16.40;35.10
33580;DHT22;19909;43.644;-79.438;2023-01-29T01:29:13;16.40;35.10
33580;DHT22;19909;43.644;-79.438;2023-01-29T01:31:39;16.40;35.00
33580;DHT22;19909;43.644;-79.438;2023-01-29T01:34:05;16.40;35.00
33580;DHT22;19909;43.644;-79.438;2023-01-29T01:36:31;16.40;35.00
33580;DHT22;19909;43.644;-79.438;2023-01-29T01:38:58;16.40;35.20
33580;DHT22;19909;43.644;-79.438;2023-01-29T01:41:24;16.40;35.20
33580;DHT22;19909;43.644;-79.438;2023-01-29T01:43:59;16.40;35.20
33580;DHT22;19909;43.644;-79.438;2023-01-29T01:46:35;16.40;35.10
33580;DHT22;19909;43.644;-79.438;2023-01-29T01:49:11;16.40;35.00
33580;DHT22;19909;43.644;-79.438;2023-01-29T01:51:43;16.40;35.10
33580;DHT22;19909;43.644;-79.438;2023-01-29T01:54:23;16.40;35.20
33580;DHT22;19909;43.644;-79.438;2023-01-29T01:56:57;16.40;35.20
33580;DHT22;19909;43.644;-79.438;2023-01-29T01:59:37;16.40;35.20
33580;DHT22;19909;43.644;-79.438;2023-01-29T02:02:06;16.40;35.10
33580;DHT22;19909;43.644;-79.438;2023-01-29T02:04:51;16.40;35.00
33580;DHT22;19909;43.644;-79.438;2023-01-29T02:07:40;16.40;35.20
33580;DHT22;19909;43.644;-79.438;2023-01-29T02:10:27;16.40;35.20
33580;DHT22;19909;43.644;-79.438;2023-01-29T02:12:55;16.40;35.20
33580;DHT22;19909;43.644;-79.438;2023-01-29T02:15:22;16.40;35.20
33580;DHT22;19909;43.644;-79.438;2023-01-29T02:17:48;16.40;35.10
33580;DHT22;19909;43.644;-79.438;2023-01-29T02:20:17;16.40;35.00
33580;DHT22;19909;43.644;-79.438;2023-01-29T02:31:44;16.40;35.80
33580;DHT22;19909;43.644;-79.438;2023-01-29T02:37:00;16.40;35.20
33580;DHT22;19909;43.644;-79.438;2023-01-29T02:39:35;16.40;35.20
33580;DHT22;19909;43.644;-79.438;2023-01-29T02:45:11;16.40;35.20
33580;DHT22;19909;43.644;-79.438;2023-01-29T02:47:44;16.40;35.50
33580;DHT22;19909;43.644;-79.438;2023-01-29T02:50:25;16.40;35.00
33580;DHT22;19909;43.644;-79.438;2023-01-29T02:53:15;16.40;35.10
33580;DHT22;19909;43.644;-79.438;2023-01-29T02:56:14;16.40;35.20
33580;DHT22;19909;43.644;-79.438;2023-01-29T02:58:54;16.40;35.20
33580;DHT22;19909;43.644;-79.438;2023-01-29T03:01:30;16.40;35.10
33580;DHT22;19909;43.644;-79.438;2023-01-29T03:04:08;16.40;35.10
33580;DHT22;19909;43.644;-79.438;2023-01-29T03:06:45;16.40;35.10
33580;DHT22;19909;43.644;-79.438;2023-01-29T03:09:32;16.40;35.20
33580;DHT22;19909;43.644;-79.438;2023-01-29T03:12:10;16.40;35.30
33580;DHT22;19909;43.644;-79.438;2023-01-29T03:14:54;16.40;35.20
33580;DHT22;19909;43.644;-79.438;2023-01-29T03:17:54;16.40;35.10
33580;DHT22;19909;43.644;-79.438;2023-01-29T03:20:29;16.40;35.10
33580;DHT22;19909;43.644;-79.438;2023-01-29T03:23:05;16.40;35.20
33580;DHT22;19909;43.644;-79.438;2023-01-29T03:25:34;16.40;35.30
33580;DHT22;19909;43.644;-79.438;2023-01-29T03:28:20;16.40;35.30
33580;DHT22;19909;43.644;-79.438;2023-01-29T03:31:09;16.40;35.20
33580;DHT22;19909;43.644;-79.438;2023-01-29T03:34:13;16.40;35.10
33580;DHT22;19909;43.644;-79.438;2023-01-29T03:39:51;16.40;35.20
33580;DHT22;19909;43.644;-79.438;2023-01-29T03:42:28;16.40;35.40
33580;DHT22;19909;43.644;-79.438;2023-01-29T03:45:16;16.40;35.20
33580;DHT22;19909;43.644;-79.438;2023-01-29T03:56:44;16.40;35.30
33580;DHT22;19909;43.644;-79.438;2023-01-29T03:59:20;16.40;35.80
33580;DHT22;19909;43.644;-79.438;2023-01-29T04:01:59;16.40;35.10
33580;DHT22;19909;43.644;-79.438;2023-01-29T04:04:30;16.40;35.10
33580;DHT22;19909;43.644;-79.438;2023-01-29T04:09:57;16.40;35.30
33580;DHT22;19909;43.644;-79.438;2023-01-29T04:12:34;16.40;35.30
33580;DHT22;19909;43.644;-79.438;2023-01-29T04:15:04;16.40;35.20
33580;DHT22;19909;43.644;-79.438;2023-01-29T04:17:39;16.40;35.10
33580;DHT22;19909;43.644;-79.438;2023-01-29T04:20:06;16.40;35.10
33580;DHT22;19909;43.644;-79.438;2023-01-29T04:22:39;16.40;35.20
33580;DHT22;19909;43.644;-79.438;2023-01-29T04:25:11;16.40;35.20
33580;DHT22;19909;43.644;-79.438;2023-01-29T04:28:00;16.40;35.30
33580;DHT22;19909;43.644;-79.438;2023-01-29T04:30:41;16.40;35.20
33580;DHT22;19909;43.644;-79.438;2023-01-29T04:39:09;16.40;35.20
33580;DHT22;19909;43.644;-79.438;2023-01-29T04:47:16;16.40;35.20
33580;DHT22;19909;43.644;-79.438;2023-01-29T04:52:43;16.40;35.20
33580;DHT22;19909;43.644;-79.438;2023-01-29T04:55:21;16.40;35.30
33580;DHT22;19909;43.644;-79.438;2023-01-29T04:57:59;16.40;35.30
33580;DHT22;19909;43.644;-79.438;2023-01-29T05:00:29;16.40;35.20
33580;DHT22;19909;43.644;-79.438;2023-01-29T05:02:59;16.40;35.10
33580;DHT22;19909;43.644;-79.438;2023-01-29T05:05:26;16.40;35.20
33580;DHT22;19909;43.644;-79.438;2023-01-29T05:07:53;16.40;35.30
33580;DHT22;19909;43.644;-79.438;2023-01-29T05:10:21;16.40;35.30
33580;DHT22;19909;43.644;-79.438;2023-01-29T05:12:59;16.40;35.30
33580;DHT22;19909;43.644;-79.438;2023-01-29T05:15:32;16.40;35.20
33580;DHT22;19909;43.644;-79.438;2023-01-29T05:18:05;16.40;35.10
33580;DHT22;19909;43.644;-79.438;2023-01-29T05:20:36;16.40;35.10
33580;DHT22;19909;43.644;-79.438;2023-01-29T05:23:03;16.40;35.20
33580;DHT22;19909;43.644;-79.438;2023-01-29T05:25:31;16.40;35.30
33580;DHT22;19909;43.644;-79.438;2023-01-29T05:27:58;16.40;35.30
33580;DHT22;19909;43.644;-79.438;2023-01-29T05:30:43;16.40;35.20
33580;DHT22;19909;43.644;-79.438;2023-01-29T05:33:27;16.40;35.10
33580;DHT22;19909;43.644;-79.438;2023-01-29T05:35:55;16.40;35.10
33580;DHT22;19909;43.644;-79.438;2023-01-29T05:38:23;16.40;35.20
33580;DHT22;19909;43.644;-79.438;2023-01-29T05:40:50;16.40;35.30
33580;DHT22;19909;43.644;-79.438;2023-01-29T05:43:21;16.40;35.30
33580;DHT22;19909;43.644;-79.438;2023-01-29T05:45:58;16.40;35.20
33580;DHT22;19909;43.644;-79.438;2023-01-29T05:48:26;16.40;35.10
33580;DHT22;19909;43.644;-79.438;2023-01-29T05:50:58;16.40;35.20
33580;DHT22;19909;43.644;-79.438;2023-01-29T05:53:24;16.40;35.30
33580;DHT22;19909;43.644;-79.438;2023-01-29T05:55:51;16.40;35.30
33580;DHT22;19909;43.644;-79.438;2023-01-29T05:58:17;16.40;35.30
33580;DHT22;19909;43.644;-79.438;2023-01-29T06:00:44;16.40;35.20
33580;DHT22;19909;43.644;-79.438;2023-01-29T06:03:10;16.40;35.20
33580;DHT22;19909;43.644;-79.438;2023-01-29T06:05:38;16.40;35.10
33580;DHT22;19909;43.644;-79.438;2023-01-29T06:08:05;16.40;35.30
33580;DHT22;19909;43.644;-79.438;2023-01-29T06:10:32;16.40;35.40
33580;DHT22;19909;43.644;-79.438;2023-01-29T06:12:58;16.40;35.40
33580;DHT22;19909;43.644;-79.438;2023-01-29T06:15:24;16.40;35.30
33580;DHT22;19909;43.644;-79.438;2023-01-29T06:17:55;16.40;35.20
33580;DHT22;19909;43.644;-79.438;2023-01-29T06:20:22;16.40;35.20
33580;DHT22;19909;43.644;-79.438;2023-01-29T06:22:48;16.40;35.30
33580;DHT22;19909;43.644;-79.438;2023-01-29T06:25:14;16.40;35.30
33580;DHT22;19909;43.644;-79.438;2023-01-29T06:27:40;16.40;35.40
33580;DHT22;19909;43.644;-79.438;2023-01-29T06:30:07;16.40;35.30
33580;DHT22;19909;43.644;-79.438;2023-01-29T06:32:33;16.40;35.20
33580;DHT22;19909;43.644;-79.438;2023-01-29T06:35:00;16.40;35.20
33580;DHT22;19909;43.644;-79.438;2023-01-29T06:37:26;16.40;35.30
33580;DHT22;19909;43.644;-79.438;2023-01-29T06:39:52;16.40;35.30
33580;DHT22;19909;43.644;-79.438;2023-01-29T06:42:18;16.40;35.40
33580;DHT22;19909;43.644;-79.438;2023-01-29T06:44:45;16.40;35.30
33580;DHT22;19909;43.644;-79.438;2023-01-29T06:47:11;16.40;35.20
33580;DHT22;19909;43.644;-79.438;2023-01-29T06:49:37;16.40;35.20
33580;DHT22;19909;43.644;-79.438;2023-01-29T06:52:03;16.40;35.20
33580;DHT22;19909;43.644;-79.438;2023-01-29T06:54:29;16.40;35.30
33580;DHT22;19909;43.644;-79.438;2023-01-29T06:56:56;16.40;35.30
33580;DHT22;19909;43.644;-79.438;2023-01-29T06:59:22;16.40;35.40
33580;DHT22;19909;43.644;-79.438;2023-01-29T07:01:48;16.40;35.20
33580;DHT22;19909;43.644;-79.438;2023-01-29T07:04:14;16.40;35.20
33580;DHT22;19909;43.644;-79.438;2023-01-29T07:06:40;16.40;35.30
33580;DHT22;19909;43.644;-79.438;2023-01-29T07:09:06;16.40;35.40
33580;DHT22;19909;43.644;-79.438;2023-01-29T07:11:35;16.40;35.40
33580;DHT22;19909;43.644;-79.438;2023-01-29T07:14:03;16.40;35.30
33580;DHT22;19909;43.644;-79.438;2023-01-29T07:16:29;16.40;35.20
33580;DHT22;19909;43.644;-79.438;2023-01-29T07:18:55;16.40;35.20
33580;DHT22;19909;43.644;-79.438;2023-01-29T07:21:21;16.40;35.20
33580;DHT22;19909;43.644;-79.438;2023-01-29T07:23:48;16.40;35.30
33580;DHT22;19909;43.644;-79.438;2023-01-29T07:26:14;16.40;35.30
33580;DHT22;19909;43.644;-79.438;2023-01-29T07:28:40;16.40;35.30
33580;DHT22;19909;43.644;-79.438;2023-01-29T07:31:08;16.40;35.20
33580;DHT22;19909;43.644;-79.438;2023-01-29T07:33:36;16.40;35.20
33580;DHT22;19909;43.644;-79.438;2023-01-29T07:36:07;16.40;35.20
33580;DHT22;19909;43.644;-79.438;2023-01-29T07:38:33;16.40;35.30
33580;DHT22;19909;43.644;-79.438;2023-01-29T07:41:00;16.40;35.30
33580;DHT22;19909;43.644;-79.438;2023-01-29T07:43:26;16.40;35.30
33580;DHT22;19909;43.644;-79.438;2023-01-29T07:45:52;16.40;35.30
33580;DHT22;19909;43.644;-79.438;2023-01-29T07:48:18;16.40;35.20
33580;DHT22;19909;43.644;-79.438;2023-01-29T07:50:44;16.40;35.20
33580;DHT22;19909;43.644;-79.438;2023-01-29T07:53:14;16.40;35.30
33580;DHT22;19909;43.644;-79.438;2023-01-29T07:55:42;16.40;35.40
33580;DHT22;19909;43.644;-79.438;2023-01-29T07:58:10;16.40;35.40
33580;DHT22;19909;43.644;-79.438;2023-01-29T08:00:36;16.40;35.30
33580;DHT22;19909;43.644;-79.438;2023-01-29T08:03:04;16.40;35.20
33580;DHT22;19909;43.644;-79.438;2023-01-29T08:05:32;16.30;35.20
33580;DHT22;19909;43.644;-79.438;2023-01-29T08:07:58;16.40;35.30
33580;DHT22;19909;43.644;-79.438;2023-01-29T08:10:25;16.40;35.40
33580;DHT22;19909;43.644;-79.438;2023-01-29T08:12:59;16.40;35.50
33580;DHT22;19909;43.644;-79.438;2023-01-29T08:15:26;16.40;35.40
33580;DHT22;19909;43.644;-79.438;2023-01-29T08:17:54;16.40;35.20
33580;DHT22;19909;43.644;-79.438;2023-01-29T08:20:21;16.30;35.20
33580;DHT22;19909;43.644;-79.438;2023-01-29T08:22:48;16.40;35.40
33580;DHT22;19909;43.644;-79.438;2023-01-29T08:25:14;16.30;35.40
33580;DHT22;19909;43.644;-79.438;2023-01-29T08:27:41;16.30;35.40
33580;DHT22;19909;43.644;-79.438;2023-01-29T08:30:08;16.40;35.40
33580;DHT22;19909;43.644;-79.438;2023-01-29T08:32:35;16.40;35.40
33580;DHT22;19909;43.644;-79.438;2023-01-29T08:35:01;16.30;35.20
33580;DHT22;19909;43.644;-79.438;2023-01-29T08:37:27;16.40;35.30
33580;DHT22;19909;43.644;-79.438;2023-01-29T08:39:53;16.40;35.50
33580;DHT22;19909;43.644;-79.438;2023-01-29T08:42:20;16.40;35.60
33580;DHT22;19909;43.644;-79.438;2023-01-29T08:44:46;16.30;35.40
33580;DHT22;19909;43.644;-79.438;2023-01-29T08:47:12;16.30;35.30
33580;DHT22;19909;43.644;-79.438;2023-01-29T08:49:38;16.30;35.30
33580;DHT22;19909;43.644;-79.438;2023-01-29T08:52:05;16.30;35.40
33580;DHT22;19909;43.644;-79.438;2023-01-29T08:54:31;16.40;35.50
33580;DHT22;19909;43.644;-79.438;2023-01-29T08:56:57;16.40;35.60
33580;DHT22;19909;43.644;-79.438;2023-01-29T08:59:24;16.30;35.50
33580;DHT22;19909;43.644;-79.438;2023-01-29T09:01:50;16.30;35.40
33580;DHT22;19909;43.644;-79.438;2023-01-29T09:04:16;16.40;35.40
33580;DHT22;19909;43.644;-79.438;2023-01-29T09:06:42;16.40;35.50
33580;DHT22;19909;43.644;-79.438;2023-01-29T09:09:09;16.30;35.50
33580;DHT22;19909;43.644;-79.438;2023-01-29T09:11:35;16.40;35.60
33580;DHT22;19909;43.644;-79.438;2023-01-29T09:14:02;16.30;35.50
33580;DHT22;19909;43.644;-79.438;2023-01-29T09:16:29;16.40;35.50
33580;DHT22;19909;43.644;-79.438;2023-01-29T09:18:55;16.30;35.40
33580;DHT22;19909;43.644;-79.438;2023-01-29T09:21:21;16.40;35.40
33580;DHT22;19909;43.644;-79.438;2023-01-29T09:23:47;16.40;35.50
33580;DHT22;19909;43.644;-79.438;2023-01-29T09:26:14;16.40;35.60
33580;DHT22;19909;43.644;-79.438;2023-01-29T09:28:40;16.30;35.50
33580;DHT22;19909;43.644;-79.438;2023-01-29T09:31:06;16.40;35.50
33580;DHT22;19909;43.644;-79.438;2023-01-29T09:33:32;16.40;35.40
33580;DHT22;19909;43.644;-79.438;2023-01-29T09:36:00;16.40;35.50
33580;DHT22;19909;43.644;-79.438;2023-01-29T09:38:27;16.40;35.60
33580;DHT22;19909;43.644;-79.438;2023-01-29T09:43:50;16.40;35.60
33580;DHT22;19909;43.644;-79.438;2023-01-29T09:46:41;16.30;35.50
33580;DHT22;19909;43.644;-79.438;2023-01-29T09:49:28;16.40;35.60
33580;DHT22;19909;43.644;-79.438;2023-01-29T09:57:40;16.40;35.70
33580;DHT22;19909;43.644;-79.438;2023-01-29T10:00:15;16.40;35.70
33580;DHT22;19909;43.644;-79.438;2023-01-29T10:11:56;16.30;35.70
33580;DHT22;19909;43.644;-79.438;2023-01-29T10:25:01;16.30;35.70
33580;DHT22;19909;43.644;-79.438;2023-01-29T10:27:32;16.30;35.60
33580;DHT22;19909;43.644;-79.438;2023-01-29T10:30:02;16.30;35.60
33580;DHT22;19909;43.644;-79.438;2023-01-29T10:32:31;16.30;35.60
33580;DHT22;19909;43.644;-79.438;2023-01-29T10:35:27;16.30;35.50
33580;DHT22;19909;43.644;-79.438;2023-01-29T10:37:52;16.40;35.60
33580;DHT22;19909;43.644;-79.438;2023-01-29T10:48:23;16.30;35.60
33580;DHT22;19909;43.644;-79.438;2023-01-29T10:53:52;16.30;35.70
33580;DHT22;19909;43.644;-79.438;2023-01-29T10:56:37;16.30;35.70
33580;DHT22;19909;43.644;-79.438;2023-01-29T10:59:29;16.30;35.70
33580;DHT22;19909;43.644;-79.438;2023-01-29T11:01:59;16.30;35.60
33580;DHT22;19909;43.644;-79.438;2023-01-29T11:04:26;16.40;35.70
33580;DHT22;19909;43.644;-79.438;2023-01-29T11:06:53;16.30;35.60
33580;DHT22;19909;43.644;-79.438;2023-01-29T11:09:33;16.40;35.80
33580;DHT22;19909;43.644;-79.438;2023-01-29T11:12:13;16.40;35.80
33580;DHT22;19909;43.644;-79.438;2023-01-29T11:17:21;16.40;35.70
33580;DHT22;19909;43.644;-79.438;2023-01-29T11:19:49;16.30;35.60
33580;DHT22;19909;43.644;-79.438;2023-01-29T11:22:18;16.30;35.60
33580;DHT22;19909;43.644;-79.438;2023-01-29T11:24:46;16.40;35.80
33580;DHT22;19909;43.644;-79.438;2023-01-29T11:27:33;16.40;35.80
33580;DHT22;19909;43.644;-79.438;2023-01-29T11:30:00;16.40;35.80
33580;DHT22;19909;43.644;-79.438;2023-01-29T11:32:33;16.30;35.70
33580;DHT22;19909;43.644;-79.438;2023-01-29T11:37:43;16.40;35.70
33580;DHT22;19909;43.644;-79.438;2023-01-29T11:45:44;16.40;35.80
33580;DHT22;19909;43.644;-79.438;2023-01-29T11:48:19;16.30;35.60
33580;DHT22;19909;43.644;-79.438;2023-01-29T11:50:57;16.30;35.70
33580;DHT22;19909;43.644;-79.438;2023-01-29T11:55:52;16.30;35.90
33580;DHT22;19909;43.644;-79.438;2023-01-29T11:58:31;16.30;35.90
33580;DHT22;19909;43.644;-79.438;2023-01-29T12:00:59;16.40;35.80
33580;DHT22;19909;43.644;-79.438;2023-01-29T12:03:35;16.40;35.80
33580;DHT22;19909;43.644;-79.438;2023-01-29T12:06:06;16.40;35.80
33580;DHT22;19909;43.644;-79.438;2023-01-29T12:08:36;16.30;35.90
33580;DHT22;19909;43.644;-79.438;2023-01-29T12:11:12;16.40;36.00
33580;DHT22;19909;43.644;-79.438;2023-01-29T12:13:40;16.40;36.00
33580;DHT22;19909;43.644;-79.438;2023-01-29T12:18:56;16.40;35.80
33580;DHT22;19909;43.644;-79.438;2023-01-29T12:21:49;16.40;35.80
33580;DHT22;19909;43.644;-79.438;2023-01-29T12:24:37;16.40;36.00
33580;DHT22;19909;43.644;-79.438;2023-01-29T12:27:20;16.40;36.00
33580;DHT22;19909;43.644;-79.438;2023-01-29T12:33:07;16.40;35.90
33580;DHT22;19909;43.644;-79.438;2023-01-29T12:35:36;16.40;35.90
33580;DHT22;19909;43.644;-79.438;2023-01-29T12:38:20;16.40;36.00
33580;DHT22;19909;43.644;-79.438;2023-01-29T12:40:54;16.30;36.00
33580;DHT22;19909;43.644;-79.438;2023-01-29T12:45:57;16.40;36.00
33580;DHT22;19909;43.644;-79.438;2023-01-29T12:48:36;16.40;36.00
33580;DHT22;19909;43.644;-79.438;2023-01-29T12:51:14;16.40;35.90
33580;DHT22;19909;43.644;-79.438;2023-01-29T12:53:54;16.40;36.10
33580;DHT22;19909;43.644;-79.438;2023-01-29T12:56:38;16.30;36.60
33580;DHT22;19909;43.644;-79.438;2023-01-29T13:01:55;16.40;36.60
33580;DHT22;19909;43.644;-79.438;2023-01-29T13:04:35;16.40;36.00
33580;DHT22;19909;43.644;-79.438;2023-01-29T13:10:17;16.30;36.10
33580;DHT22;19909;43.644;-79.438;2023-01-29T13:13:12;16.30;36.10
33580;DHT22;19909;43.644;-79.438;2023-01-29T13:15:41;16.40;36.10
33580;DHT22;19909;43.644;-79.438;2023-01-29T13:20:50;16.40;36.00
33580;DHT22;19909;43.644;-79.438;2023-01-29T13:23:24;16.40;36.10
33580;DHT22;19909;43.644;-79.438;2023-01-29T13:25:53;16.30;36.10
33580;DHT22;19909;43.644;-79.438;2023-01-29T13:28:23;16.30;36.20
33580;DHT22;19909;43.644;-79.438;2023-01-29T13:36:45;16.40;36.10
33580;DHT22;19909;43.644;-79.438;2023-01-29T13:39:22;16.40;36.20
33580;DHT22;19909;43.644;-79.438;2023-01-29T13:41:50;16.30;36.20
33580;DHT22;19909;43.644;-79.438;2023-01-29T13:44:20;16.40;36.20
33580;DHT22;19909;43.644;-79.438;2023-01-29T13:46:50;16.40;36.10
33580;DHT22;19909;43.644;-79.438;2023-01-29T13:49:42;16.40;36.00
33580;DHT22;19909;43.644;-79.438;2023-01-29T13:54:40;16.40;36.20
33580;DHT22;19909;43.644;-79.438;2023-01-29T14:00:00;16.40;36.20
33580;DHT22;19909;43.644;-79.438;2023-01-29T14:02:28;16.40;36.10
33580;DHT22;19909;43.644;-79.438;2023-01-29T14:08:04;16.40;36.20
33580;DHT22;19909;43.644;-79.438;2023-01-29T14:10:32;16.40;36.20
33580;DHT22;19909;43.644;-79.438;2023-01-29T14:15:45;16.40;36.30
33580;DHT22;19909;43.644;-79.438;2023-01-29T14:18:32;16.30;36.10
33580;DHT22;19909;43.644;-79.438;2023-01-29T14:21:06;16.40;36.10
33580;DHT22;19909;43.644;-79.438;2023-01-29T14:23:43;16.40;36.30
33580;DHT22;19909;43.644;-79.438;2023-01-29T14:31:36;16.40;36.20
33580;DHT22;19909;43.644;-79.438;2023-01-29T14:34:13;16.30;36.00
33580;DHT22;19909;43.644;-79.438;2023-01-29T14:36:43;16.40;36.20
33580;DHT22;19909;43.644;-79.438;2023-01-29T14:39:28;16.30;36.30
33580;DHT22;19909;43.644;-79.438;2023-01-29T14:41:57;16.40;36.30
33580;DHT22;19909;43.644;-79.438;2023-01-29T14:44:45;16.40;36.30
33580;DHT22;19909;43.644;-79.438;2023-01-29T14:55:42;16.40;36.30
33580;DHT22;19909;43.644;-79.438;2023-01-29T14:58:41;16.40;36.40
33580;DHT22;19909;43.644;-79.438;2023-01-29T15:01:22;16.30;36.30
33580;DHT22;19909;43.644;-79.438;2023-01-29T15:04:04;16.30;36.20
33580;DHT22;19909;43.644;-79.438;2023-01-29T15:07:14;16.30;36.20
33580;DHT22;19909;43.644;-79.438;2023-01-29T15:09:38;16.30;36.30
33580;DHT22;19909;43.644;-79.438;2023-01-29T15:12:16;16.30;36.40
33580;DHT22;19909;43.644;-79.438;2023-01-29T15:14:55;16.30;36.30
33580;DHT22;19909;43.644;-79.438;2023-01-29T15:20:33;16.30;36.20
33580;DHT22;19909;43.644;-79.438;2023-01-29T15:23:01;16.40;36.40
33580;DHT22;19909;43.644;-79.438;2023-01-29T15:25:36;16.30;36.40
33580;DHT22;19909;43.644;-79.438;2023-01-29T15:28:11;16.40;36.50
33580;DHT22;19909;43.644;-79.438;2023-01-29T15:30:38;16.30;36.30
33580;DHT22;19909;43.644;-79.438;2023-01-29T15:33:08;16.40;36.30
33580;DHT22;19909;43.644;-79.438;2023-01-29T15:35:37;16.40;36.30
33580;DHT22;19909;43.644;-79.438;2023-01-29T15:38:11;16.30;36.30
33580;DHT22;19909;43.644;-79.438;2023-01-29T15:41:00;16.30;36.30
33580;DHT22;19909;43.644;-79.438;2023-01-29T15:43:32;16.40;36.40
33580;DHT22;19909;43.644;-79.438;2023-01-29T15:46:15;16.40;36.30
33580;DHT22;19909;43.644;-79.438;2023-01-29T15:48:44;16.30;36.20
33580;DHT22;19909;43.644;-79.438;2023-01-29T15:51:20;16.30;36.30
33580;DHT22;19909;43.644;-79.438;2023-01-29T15:53:48;16.30;36.40
33580;DHT22;19909;43.644;-79.438;2023-01-29T15:56:17;16.30;36.40
33580;DHT22;19909;43.644;-79.438;2023-01-29T15:58:48;16.30;36.50
33580;DHT22;19909;43.644;-79.438;2023-01-29T16:01:16;16.30;36.30
33580;DHT22;19909;43.644;-79.438;2023-01-29T16:03:43;16.40;36.30
33580;DHT22;19909;43.644;-79.438;2023-01-29T16:06:11;16.40;36.30
33580;DHT22;19909;43.644;-79.438;2023-01-29T16:08:38;16.30;36.40
33580;DHT22;19909;43.644;-79.438;2023-01-29T16:11:06;16.30;36.30
33580;DHT22;19909;43.644;-79.438;2023-01-29T16:13:35;16.30;36.40
33580;DHT22;19909;43.644;-79.438;2023-01-29T16:16:30;16.30;36.20
33580;DHT22;19909;43.644;-79.438;2023-01-29T16:18:57;16.30;36.20
33580;DHT22;19909;43.644;-79.438;2023-01-29T16:21:35;16.30;36.20
33580;DHT22;19909;43.644;-79.438;2023-01-29T16:24:13;16.30;36.30
33580;DHT22;19909;43.644;-79.438;2023-01-29T16:26:48;16.30;36.40
33580;DHT22;19909;43.644;-79.438;2023-01-29T16:29:21;16.30;36.30
33580;DHT22;19909;43.644;-79.438;2023-01-29T16:31:52;16.30;36.30
33580;DHT22;19909;43.644;-79.438;2023-01-29T16:34:28;16.30;36.20
33580;DHT22;19909;43.644;-79.438;2023-01-29T16:36:56;16.40;36.30
33580;DHT22;19909;43.644;-79.438;2023-01-29T16:39:25;16.30;36.40
33580;DHT22;19909;43.644;-79.438;2023-01-29T16:47:39;16.30;36.20
33580;DHT22;19909;43.644;-79.438;2023-01-29T16:52:59;16.30;36.40
33580;DHT22;19909;43.644;-79.438;2023-01-29T16:55:31;16.30;36.40
33580;DHT22;19909;43.644;-79.438;2023-01-29T16:58:03;16.40;36.50
33580;DHT22;19909;43.644;-79.438;2023-01-29T17:00:30;16.30;36.30
33580;DHT22;19909;43.644;-79.438;2023-01-29T17:03:04;16.30;36.30
33580;DHT22;19909;43.644;-79.438;2023-01-29T17:05:34;16.30;36.20
33580;DHT22;19909;43.644;-79.438;2023-01-29T17:08:02;16.30;36.40
33580;DHT22;19909;43.644;-79.438;2023-01-29T17:10:30;16.30;36.40
33580;DHT22;19909;43.644;-79.438;2023-01-29T17:13:06;16.30;36.40
33580;DHT22;19909;43.644;-79.438;2023-01-29T17:18:01;16.30;36.20
33580;DHT22;19909;43.644;-79.438;2023-01-29T17:20:29;16.30;36.20
33580;DHT22;19909;43.644;-79.438;2023-01-29T17:22:55;16.40;36.40
33580;DHT22;19909;43.644;-79.438;2023-01-29T17:25:21;16.40;36.30
33580;DHT22;19909;43.644;-79.438;2023-01-29T17:27:48;16.30;37.00
33580;DHT22;19909;43.644;-79.438;2023-01-29T17:30:20;16.30;36.30
33580;DHT22;19909;43.644;-79.438;2023-01-29T17:32:46;16.30;36.20
33580;DHT22;19909;43.644;-79.438;2023-01-29T17:35:13;16.30;36.20
33580;DHT22;19909;43.644;-79.438;2023-01-29T17:37:40;16.30;36.30
33580;DHT22;19909;43.644;-79.438;2023-01-29T17:40:32;16.30;36.40
33580;DHT22;19909;43.644;-79.438;2023-01-29T17:42:59;16.30;36.40
33580;DHT22;19909;43.644;-79.438;2023-01-29T17:45:26;16.30;36.30
33580;DHT22;19909;43.644;-79.438;2023-01-29T17:47:52;16.30;36.30
33580;DHT22;19909;43.644;-79.438;2023-01-29T17:50:22;16.30;36.20
33580;DHT22;19909;43.644;-79.438;2023-01-29T17:52:49;16.30;36.20
33580;DHT22;19909;43.644;-79.438;2023-01-29T17:55:16;16.40;36.40
33580;DHT22;19909;43.644;-79.438;2023-01-29T17:57:42;16.30;36.40
33580;DHT22;19909;43.644;-79.438;2023-01-29T18:00:19;16.30;36.30
33580;DHT22;19909;43.644;-79.438;2023-01-29T18:02:45;16.30;36.20
33580;DHT22;19909;43.644;-79.438;2023-01-29T18:05:13;16.30;36.10
33580;DHT22;19909;43.644;-79.438;2023-01-29T18:07:41;16.30;36.20
33580;DHT22;19909;43.644;-79.438;2023-01-29T18:10:17;16.30;36.20